This is the latest recevied weather packets stored in our database for station/object LRBV. If no packets are shown the sender has not sent any weather packets the latest 10 day(s).
| Time | Temp. | Humidity | Pressure | Rain* | Wind** | Luminosity | Snow |
|---|---|---|---|---|---|---|---|
| 1777869230 | 6.11° C | 81% | 1018 hPa | - | - | - | - |
| 1777868331 | 5° C | 81% | 1018 hPa | - | - | - | - |
| 1777867430 | 5° C | 81% | 1018 hPa | - | - | - | - |
| 1777866531 | 6.11° C | 76% | 1018 hPa | - | - | - | - |
| 1777865630 | 6.11° C | 76% | 1018 hPa | - | - | - | - |
| 1777843131 | 6.11° C | 71% | 1019 hPa | - | - | - | - |
| 1777836914 | 7.78° C | 57% | 1019 hPa | - | - | - | - |
| 1777835031 | 8.89° C | 50% | 1019 hPa | - | - | - | - |
| 1777830551 | 11.11° C | 44% | 1018 hPa | - | - | - | - |
| 1777821531 | 13.89° C | 29% | 1019 hPa | - | - | - | - |
| 1777817932 | 13.89° C | 27% | 1020 hPa | - | - | - | - |
| 1777817038 | 13.89° C | 27% | 1020 hPa | - | - | - | - |
| 1777816128 | 12.78° C | 28% | 1020 hPa | - | - | - | - |
| 1777810745 | 12.78° C | 33% | 1021 hPa | - | - | - | - |
| 1777805376 | 11.11° C | 32% | 1022 hPa | - | - | - | - |
| 1777802631 | 10° C | 37% | 1022 hPa | - | - | - | - |
| 1777801731 | 10° C | 35% | 1023 hPa | - | - | - | - |
| 1777800831 | 10° C | 35% | 1023 hPa | - | - | - | - |
| 1777799931 | 8.89° C | 40% | 1023 hPa | - | - | - | - |
| 1777799051 | 8.89° C | 40% | 1023 hPa | - | - | - | - |
| 1777797230 | 8.89° C | 37% | 1023 hPa | - | - | - | - |
| 1777796331 | 7.78° C | 57% | 1023 hPa | - | - | - | - |
| 1777795441 | 7.78° C | 57% | 1023 hPa | - | - | - | - |
| 1777794531 | 7.22° C | 76% | 1023 hPa | - | - | - | - |
| 1777793630 | 7.22° C | 76% | 1023 hPa | - | - | - | - |
* Rain since midnight (hover to see other rain measurements)
** Current wind speed in m/s (hover to see current wind gust speed)